Terminal Aerodrome Forecast
Issued by NWS

Home | Current Version | Previous Version | Graphics & Text | Print | Product List | Glossary On
Versions: 1 2 3 4 5 6 7 8 9 10 11 12 13 14 15 16 17 18
000
FTUS43 KMPX 020520
TAFAXN
TAF
KAXN 020520Z 0206/0306 30009KT P6SM FEW250
     FM021300 19006KT P6SM SCT100
     FM021900 16018G25KT P6SM FEW070 OVC100=

USA.gov is the U.S. government's official web portal to all federal, state and local government web resources and services.